createdAt,value
2024-02-04T00:23:36.272Z,81.90
2024-02-04T00:27:06.140Z,82.14
2024-02-04T00:30:38.022Z,82.30
2024-02-04T00:34:08.274Z,82.05
2024-02-04T00:38:07.560Z,82.13
2024-02-04T00:41:12.397Z,82.27
2024-02-04T00:45:09.040Z,82.06
2024-02-04T00:48:40.649Z,82.14
2024-02-04T00:52:12.537Z,82.69
2024-02-04T00:59:43.979Z,82.44
2024-02-04T01:03:16.518Z,82.72
2024-02-04T01:10:55.233Z,82.83
2024-02-04T01:14:45.912Z,82.90
2024-02-04T01:18:40.792Z,82.62
2024-02-04T01:26:32.574Z,82.13
2024-02-04T01:30:56.303Z,82.29
2024-02-04T01:38:19.554Z,82.93
2024-02-04T01:45:46.581Z,83.17
2024-02-04T01:48:59.923Z,82.61
2024-02-04T01:52:28.019Z,83.04
2024-02-04T02:06:21.504Z,81.45
2024-02-04T02:10:06.014Z,80.92
2024-02-04T02:17:59.275Z,80.74
2024-02-04T02:21:48.779Z,80.72
2024-02-04T02:25:18.086Z,80.90
2024-02-04T02:28:41.497Z,80.33
2024-02-04T02:32:05.512Z,80.55
2024-02-04T02:35:20.448Z,80.24
2024-02-04T02:38:55.549Z,80.36
2024-02-04T02:46:05.367Z,80.78
2024-02-04T03:08:59.185Z,80.86
2024-02-04T03:12:31.978Z,81.09
2024-02-04T03:16:08.077Z,82.00
2024-02-04T03:24:20.064Z,82.16
2024-02-04T03:27:45.024Z,81.92
2024-02-04T03:31:39.632Z,81.53
2024-02-04T03:35:15.060Z,81.90
2024-02-04T03:43:19.846Z,81.69
2024-02-04T03:46:54.450Z,81.45
2024-02-04T03:50:16.412Z,81.25
2024-02-04T03:57:50.390Z,80.74
2024-02-04T04:13:27.834Z,81.12
2024-02-04T04:16:38.680Z,80.50
2024-02-04T04:20:37.119Z,80.10
2024-02-04T04:24:22.372Z,80.24
2024-02-04T04:28:30.487Z,80.34
2024-02-04T04:45:24.687Z,81.45
2024-02-04T04:48:58.047Z,81.22
2024-02-04T04:52:35.130Z,81.29
2024-02-04T04:56:07.083Z,81.61
2024-02-04T05:04:15.406Z,81.81
2024-02-04T05:12:32.407Z,81.78
2024-02-04T05:16:43.101Z,81.80
2024-02-04T05:24:47.448Z,81.85
2024-02-04T05:28:31.998Z,81.92
2024-02-04T05:32:04.513Z,81.67
2024-02-04T05:35:28.926Z,81.55
2024-02-04T05:38:58.321Z,81.80
2024-02-04T05:42:42.746Z,81.66
2024-02-04T05:46:38.052Z,81.85
2024-02-04T05:50:29.863Z,81.71
2024-02-04T05:53:56.740Z,81.93
2024-02-04T05:58:17.880Z,81.88
2024-02-04T06:02:17.174Z,81.97
2024-02-04T06:10:02.896Z,81.96
2024-02-04T06:13:33.393Z,82.05
2024-02-04T06:17:21.369Z,82.38
2024-02-04T06:20:29.759Z,82.10
2024-02-04T06:24:35.604Z,82.24
2024-02-04T06:28:10.595Z,82.09
2024-02-04T06:31:44.354Z,82.05
2024-02-04T06:34:59.646Z,82.03
2024-02-04T06:38:53.390Z,82.05
2024-02-04T06:46:45.009Z,82.22
2024-02-04T06:58:31.602Z,82.20
2024-02-04T07:18:45.964Z,82.80
2024-02-04T07:29:44.476Z,82.88
2024-02-04T08:03:37.263Z,82.69
2024-02-04T08:06:43.528Z,82.58
2024-02-04T08:10:11.424Z,82.52
2024-02-04T08:13:24.847Z,82.68
2024-02-04T08:16:53.774Z,82.40
2024-02-04T08:20:10.319Z,82.51
2024-02-04T08:23:41.135Z,82.63
2024-02-04T08:31:04.236Z,82.74
2024-02-04T08:34:27.307Z,82.56
2024-02-04T08:37:45.390Z,82.74
2024-02-04T08:41:00.630Z,82.33
2024-02-04T08:44:22.992Z,82.34
2024-02-04T08:47:46.862Z,82.54
2024-02-04T08:50:57.854Z,82.57
2024-02-04T08:54:34.689Z,82.39
2024-02-04T08:57:50.546Z,82.22
2024-02-04T09:01:14.361Z,82.45
2024-02-04T09:04:43.374Z,82.42
2024-02-04T09:12:07.357Z,82.46
2024-02-04T09:22:19.379Z,82.65
2024-02-04T09:25:40.464Z,82.67
2024-02-04T09:32:04.095Z,82.69
2024-02-04T09:34:56.731Z,82.85
2024-02-04T09:38:18.575Z,82.75
2024-02-04T09:41:32.309Z,82.70
2024-02-04T09:45:00.718Z,82.61
2024-02-04T09:48:10.238Z,82.78
2024-02-04T09:51:27.033Z,82.87
2024-02-04T09:54:33.388Z,83.15
2024-02-04T09:57:46.694Z,83.17
2024-02-04T10:01:04.004Z,82.92
2024-02-04T10:04:24.887Z,83.03
2024-02-04T10:07:44.719Z,83.00
2024-02-04T10:10:38.963Z,82.99
2024-02-04T10:13:40.184Z,83.04
2024-02-04T10:16:44.391Z,83.07
2024-02-04T10:19:53.661Z,82.96
2024-02-04T10:23:04.794Z,82.94
2024-02-04T10:25:34.084Z,82.60
2024-02-04T10:28:19.892Z,82.82
2024-02-04T10:31:02.818Z,82.98
2024-02-04T10:34:14.859Z,82.84
2024-02-04T10:37:05.374Z,82.95
2024-02-04T10:39:51.925Z,83.10
2024-02-04T10:43:12.482Z,82.79
2024-02-04T10:45:44.414Z,82.80
2024-02-04T10:48:19.361Z,82.84
2024-02-04T10:51:40.839Z,82.92
2024-02-04T10:54:13.021Z,82.88
2024-02-04T10:57:16.073Z,82.90
2024-02-04T11:00:14.111Z,83.01
2024-02-04T11:03:23.875Z,83.00
2024-02-04T11:06:28.171Z,83.01
2024-02-04T11:09:11.758Z,82.94
2024-02-04T11:12:27.704Z,82.89
2024-02-04T11:15:50.233Z,83.06
2024-02-04T11:19:29.643Z,82.84
2024-02-04T11:22:57.503Z,83.04
2024-02-04T11:26:07.619Z,82.90
2024-02-04T11:29:37.601Z,83.20
2024-02-04T11:32:53.431Z,83.29
2024-02-04T11:36:06.393Z,83.29
2024-02-04T11:39:19.543Z,83.24
2024-02-04T11:42:35.865Z,83.23
2024-02-04T11:45:39.058Z,83.12
2024-02-04T11:49:11.656Z,83.12
2024-02-04T11:52:20.965Z,83.11
2024-02-04T11:55:28.228Z,83.23
2024-02-04T11:58:50.411Z,83.09
2024-02-04T12:02:03.558Z,83.08
2024-02-04T12:04:53.825Z,83.24
2024-02-04T12:07:41.766Z,83.09
2024-02-04T12:10:25.212Z,83.11
2024-02-04T12:13:06.000Z,83.15
2024-02-04T12:15:38.788Z,83.17
2024-02-04T12:18:08.911Z,83.43
2024-02-04T12:21:06.043Z,83.07
2024-02-04T12:23:35.733Z,83.14
2024-02-04T12:26:46.941Z,83.15
2024-02-04T12:29:26.051Z,83.40
2024-02-04T12:32:02.455Z,83.52
2024-02-04T12:35:32.696Z,83.54
2024-02-04T12:39:03.352Z,83.13
2024-02-04T12:42:01.674Z,82.82
2024-02-04T12:44:40.943Z,82.90
2024-02-04T12:47:42.948Z,82.81
2024-02-04T12:51:08.573Z,82.72
2024-02-04T12:54:47.126Z,82.67
2024-02-04T12:58:01.289Z,82.51
2024-02-04T13:01:11.768Z,82.41
2024-02-04T13:04:03.506Z,82.80
2024-02-04T13:06:47.235Z,82.69
2024-02-04T13:09:26.665Z,82.49
2024-02-04T13:12:41.311Z,82.72
2024-02-04T13:16:09.852Z,82.88
2024-02-04T13:19:36.432Z,82.95
2024-02-04T13:23:00.385Z,82.59
2024-02-04T13:26:29.594Z,82.88
2024-02-04T13:29:52.292Z,82.78
2024-02-04T13:33:16.546Z,82.55
2024-02-04T13:36:40.790Z,82.58
2024-02-04T13:39:56.298Z,82.92
2024-02-04T13:42:56.444Z,82.60
2024-02-04T13:46:17.318Z,82.66
2024-02-04T13:49:15.339Z,82.35
2024-02-04T13:52:22.085Z,82.72
2024-02-04T13:55:16.626Z,82.62
2024-02-04T13:58:01.910Z,82.40
2024-02-04T14:04:35.676Z,82.28
2024-02-04T14:07:38.652Z,82.28
2024-02-04T14:10:53.444Z,82.03
2024-02-04T14:13:52.917Z,82.29
2024-02-04T14:16:48.137Z,82.04
2024-02-04T14:19:57.827Z,81.74
2024-02-04T14:23:04.003Z,81.75
2024-02-04T14:26:10.968Z,82.06
2024-02-04T14:29:32.520Z,81.74
2024-02-04T14:32:36.177Z,81.80
2024-02-04T14:35:40.832Z,81.65
2024-02-04T14:38:41.980Z,81.69
2024-02-04T14:41:31.203Z,81.90
2024-02-04T14:44:39.893Z,81.72
2024-02-04T14:48:44.073Z,81.69
2024-02-04T14:52:35.856Z,81.60
2024-02-04T14:56:34.872Z,81.77
2024-02-04T15:00:04.327Z,81.65
2024-02-04T15:03:34.072Z,81.66
2024-02-04T15:06:55.900Z,81.82
2024-02-04T15:10:29.171Z,81.74
2024-02-04T15:13:58.979Z,82.03
2024-02-04T15:17:14.960Z,81.79
2024-02-04T15:20:19.706Z,81.94
2024-02-04T15:23:43.242Z,81.50
2024-02-04T15:27:11.129Z,81.88
2024-02-04T15:30:48.151Z,82.06
2024-02-04T15:37:58.862Z,82.23
2024-02-04T15:41:21.717Z,82.28
2024-02-04T15:44:51.727Z,82.11
2024-02-04T15:47:56.321Z,82.20
2024-02-04T15:51:26.407Z,82.26
2024-02-04T15:54:51.910Z,82.55
2024-02-04T15:58:27.090Z,82.40
2024-02-04T16:06:15.526Z,82.56
2024-02-04T16:09:44.343Z,82.63
2024-02-04T16:13:14.884Z,83.06
2024-02-04T16:16:48.722Z,83.23
2024-02-04T17:23:15.851Z,85.01
2024-02-04T17:26:46.420Z,85.14
2024-02-04T17:30:21.553Z,85.62
2024-02-04T17:33:52.680Z,85.88
2024-02-04T17:37:24.478Z,86.13
2024-02-04T17:40:58.209Z,86.26
2024-02-04T18:17:13.721Z,87.28
2024-02-04T18:21:09.888Z,87.09
2024-02-04T18:24:31.511Z,87.03
2024-02-04T18:28:04.726Z,87.06
2024-02-04T18:31:29.139Z,86.93
2024-02-04T18:38:20.229Z,87.37
2024-02-04T18:41:49.730Z,87.13
2024-02-04T18:45:24.775Z,87.48
2024-02-04T18:49:04.301Z,88.13
2024-02-04T19:18:35.420Z,88.24
2024-02-04T19:22:11.660Z,87.88
2024-02-04T19:25:42.275Z,87.70
2024-02-04T19:29:15.791Z,87.66
2024-02-04T19:32:46.443Z,87.62
2024-02-04T19:36:14.822Z,87.29
2024-02-04T19:39:47.185Z,87.46
2024-02-04T19:43:17.260Z,87.57
2024-02-04T19:54:37.257Z,86.86
2024-02-04T20:08:20.476Z,86.84
2024-02-04T20:14:42.656Z,86.91
2024-02-04T20:32:07.915Z,87.16
2024-02-04T20:35:32.065Z,87.41
2024-02-04T20:39:03.044Z,87.07
2024-02-04T20:42:19.217Z,86.94
2024-02-04T20:45:37.565Z,86.99
2024-02-04T20:49:09.835Z,86.71
2024-02-04T20:52:24.162Z,86.39
2024-02-04T20:55:58.238Z,86.97
2024-02-04T20:59:15.848Z,86.78
2024-02-04T21:07:22.774Z,86.65
2024-02-04T21:18:19.784Z,86.96
2024-02-04T21:21:49.564Z,87.04
2024-02-04T21:25:07.633Z,86.97
2024-02-04T21:28:41.145Z,87.16
2024-02-04T21:36:17.353Z,87.78
2024-02-04T21:39:48.097Z,87.59
2024-02-04T21:43:10.470Z,87.55
2024-02-04T21:50:52.844Z,87.61
2024-02-04T21:54:26.832Z,87.64
2024-02-04T21:58:02.864Z,87.67
2024-02-04T22:01:09.257Z,87.75
2024-02-04T22:18:01.580Z,87.97
2024-02-04T22:21:27.244Z,88.39
2024-02-04T22:24:56.383Z,88.61
2024-02-04T22:31:47.275Z,88.65
2024-02-04T22:38:51.872Z,88.48
2024-02-04T22:42:22.844Z,88.61
2024-02-04T22:45:46.072Z,88.37
2024-02-04T22:49:03.654Z,88.76
2024-02-04T22:52:24.767Z,88.70
2024-02-04T22:59:18.661Z,88.70
2024-02-04T23:02:45.516Z,88.78
2024-02-04T23:06:07.550Z,89.40
2024-02-04T23:09:30.482Z,89.24
2024-02-04T23:13:00.085Z,89.17
2024-02-04T23:16:29.489Z,89.26
2024-02-04T23:20:01.743Z,89.13
2024-02-04T23:23:26.387Z,89.31
2024-02-04T23:26:57.862Z,89.16
2024-02-04T23:30:32.770Z,88.97
2024-02-04T23:33:48.770Z,89.20
2024-02-04T23:41:54.957Z,88.46
2024-02-04T23:45:23.808Z,88.73
2024-02-04T23:48:57.158Z,88.57
2024-02-04T23:52:12.784Z,88.42
2024-02-04T23:55:35.050Z,89.03
2024-02-04T23:59:02.775Z,89.43
